createdAt,value
2018-12-23T00:00:56.179Z,94.80
2018-12-23T00:03:23.728Z,94.50
2018-12-23T00:05:51.262Z,94.80
2018-12-23T00:08:18.788Z,94.70
2018-12-23T00:10:46.263Z,95.10
2018-12-23T00:13:13.803Z,95.10
2018-12-23T00:15:41.331Z,95.10
2018-12-23T00:18:08.847Z,95.70
2018-12-23T00:20:36.332Z,95.70
2018-12-23T00:23:03.836Z,95.40
2018-12-23T00:25:31.350Z,95.50
2018-12-23T00:27:58.859Z,95.80
2018-12-23T00:30:26.385Z,95.70
2018-12-23T00:32:53.928Z,95.50
2018-12-23T00:35:21.495Z,95.60
2018-12-23T00:37:49.045Z,95.90
2018-12-23T00:40:16.567Z,95.80
2018-12-23T00:42:44.074Z,95.50
2018-12-23T00:45:11.590Z,95.30
2018-12-23T00:47:39.070Z,95.30
2018-12-23T00:50:06.840Z,95.00
2018-12-23T00:52:34.367Z,95.80
2018-12-23T00:55:01.898Z,95.50
2018-12-23T00:57:29.465Z,95.20
2018-12-23T00:59:57.056Z,95.20
2018-12-23T01:02:24.598Z,95.20
2018-12-23T01:04:52.101Z,95.20
2018-12-23T01:07:19.576Z,95.10
2018-12-23T01:09:47.074Z,95.10
2018-12-23T01:12:14.636Z,95.10
2018-12-23T01:14:42.149Z,95.00
2018-12-23T01:17:09.647Z,95.20
2018-12-23T01:19:37.118Z,95.40
2018-12-23T01:22:04.668Z,95.20
2018-12-23T01:24:32.207Z,95.50
2018-12-23T01:26:59.701Z,95.60
2018-12-23T01:29:27.231Z,95.20
2018-12-23T01:31:54.762Z,95.30
2018-12-23T01:34:22.292Z,95.30
2018-12-23T01:36:49.759Z,95.60
2018-12-23T01:39:17.276Z,95.50
2018-12-23T01:41:45.643Z,95.60
2018-12-23T01:44:13.157Z,95.50
2018-12-23T01:46:40.621Z,95.80
2018-12-23T01:49:08.107Z,95.80
2018-12-23T01:51:35.628Z,95.50
2018-12-23T01:54:03.221Z,95.80
2018-12-23T01:56:30.712Z,95.80
2018-12-23T01:58:58.186Z,95.80
2018-12-23T02:01:25.699Z,95.50
2018-12-23T02:03:53.203Z,95.50
2018-12-23T02:06:20.699Z,95.80
2018-12-23T02:08:48.220Z,94.70
2018-12-23T02:11:15.741Z,94.50
2018-12-23T02:13:43.212Z,95.60
2018-12-23T02:16:10.718Z,94.70
2018-12-23T02:18:38.237Z,95.00
2018-12-23T02:21:05.738Z,95.60
2018-12-23T02:23:33.249Z,95.60
2018-12-23T02:26:00.755Z,95.50
2018-12-23T02:28:28.332Z,96.00
2018-12-23T02:30:55.868Z,95.90
2018-12-23T02:33:23.469Z,96.60
2018-12-23T02:35:55.557Z,96.60
2018-12-23T02:38:20.476Z,96.20
2018-12-23T02:40:47.975Z,96.10
2018-12-23T02:43:15.463Z,95.70
2018-12-23T02:45:42.980Z,96.20
2018-12-23T02:48:10.528Z,95.60
2018-12-23T02:50:37.994Z,95.80
2018-12-23T02:53:05.582Z,95.80
2018-12-23T02:55:33.090Z,95.50
2018-12-23T02:58:00.630Z,95.80
2018-12-23T03:00:28.135Z,95.70
2018-12-23T03:02:55.636Z,96.00
2018-12-23T03:05:23.124Z,95.90
2018-12-23T03:07:50.607Z,95.80
2018-12-23T03:10:18.109Z,95.80
2018-12-23T03:12:45.623Z,95.50
2018-12-23T03:15:13.129Z,96.30
2018-12-23T03:17:40.614Z,96.20
2018-12-23T03:20:08.291Z,96.30
2018-12-23T03:22:35.756Z,96.00
2018-12-23T03:25:03.434Z,96.20
2018-12-23T03:27:30.899Z,96.10
2018-12-23T03:29:58.383Z,96.20
2018-12-23T03:32:25.888Z,96.00
2018-12-23T03:34:53.511Z,96.10
2018-12-23T03:37:20.995Z,96.30
2018-12-23T03:39:48.518Z,96.50
2018-12-23T03:42:16.025Z,96.40
2018-12-23T03:44:43.496Z,96.60
2018-12-23T03:47:11.017Z,96.20
2018-12-23T03:49:38.557Z,96.10
2018-12-23T03:52:06.084Z,96.80
2018-12-23T03:54:33.623Z,96.70
2018-12-23T03:57:01.114Z,96.60
2018-12-23T03:59:28.659Z,97.10
2018-12-23T04:01:56.300Z,97.40
2018-12-23T04:04:23.793Z,97.40
2018-12-23T04:06:51.312Z,97.40
2018-12-23T04:09:18.796Z,97.30
2018-12-23T04:11:46.362Z,97.50
2018-12-23T04:14:13.852Z,97.50
2018-12-23T04:16:41.369Z,97.40
2018-12-23T04:19:08.836Z,97.40
2018-12-23T04:21:36.349Z,97.40
2018-12-23T04:24:03.861Z,97.90
2018-12-23T04:26:31.378Z,98.30
2018-12-23T04:28:58.891Z,98.40
2018-12-23T04:31:26.351Z,97.40
2018-12-23T04:33:53.898Z,97.20
2018-12-23T04:36:21.406Z,97.60
2018-12-23T04:38:48.997Z,97.50
2018-12-23T04:41:16.546Z,98.40
2018-12-23T04:43:44.023Z,98.30
2018-12-23T04:46:11.507Z,97.90
2018-12-23T04:48:39.020Z,98.10
2018-12-23T04:51:06.515Z,98.70
2018-12-23T04:53:34.044Z,98.90
2018-12-23T04:56:01.563Z,98.40
2018-12-23T04:58:29.031Z,98.20
2018-12-23T05:00:56.525Z,98.20
2018-12-23T05:03:24.018Z,98.90
2018-12-23T05:05:51.621Z,98.60
2018-12-23T05:08:19.117Z,98.50
2018-12-23T05:10:46.628Z,98.70
2018-12-23T05:13:14.143Z,99.20
2018-12-23T05:15:41.671Z,98.30
2018-12-23T05:18:09.151Z,98.20
2018-12-23T05:20:36.685Z,98.00
2018-12-23T05:23:04.279Z,97.80
2018-12-23T05:25:31.801Z,97.90
2018-12-23T05:27:59.260Z,98.20
2018-12-23T05:30:26.862Z,98.60
2018-12-23T05:32:54.422Z,98.60
2018-12-23T05:35:21.918Z,99.10
2018-12-23T05:37:49.412Z,98.60
2018-12-23T05:40:16.928Z,98.50
2018-12-23T05:42:44.405Z,98.10
2018-12-23T05:45:11.963Z,98.50
2018-12-23T05:47:39.460Z,98.40
2018-12-23T05:50:07.065Z,98.60
2018-12-23T05:52:34.586Z,98.20
2018-12-23T05:55:02.111Z,98.40
2018-12-23T05:57:29.634Z,98.20
2018-12-23T05:59:57.124Z,99.00
2018-12-23T06:02:24.632Z,99.00
2018-12-23T06:04:52.102Z,98.80
2018-12-23T06:07:19.642Z,98.10
2018-12-23T06:09:47.103Z,98.40
2018-12-23T06:12:14.623Z,98.40
2018-12-23T06:14:42.137Z,98.60
2018-12-23T06:17:09.605Z,98.50
2018-12-23T06:19:37.139Z,98.70
2018-12-23T06:22:04.625Z,98.70
2018-12-23T06:24:32.221Z,98.80
2018-12-23T06:26:59.703Z,98.90
2018-12-23T06:29:27.360Z,99.60
2018-12-23T06:31:54.928Z,99.30
2018-12-23T06:34:23.147Z,99.50
2018-12-23T06:36:50.664Z,99.90
2018-12-23T06:39:18.189Z,99.90
2018-12-23T06:41:45.766Z,99.90
2018-12-23T06:44:13.294Z,99.90
2018-12-23T06:46:40.811Z,99.90
2018-12-23T06:49:08.283Z,99.90
2018-12-23T06:51:35.813Z,99.90
2018-12-23T06:54:03.424Z,99.90
2018-12-23T06:56:30.939Z,99.90
2018-12-23T06:58:58.638Z,99.90
2018-12-23T07:01:26.124Z,99.90
2018-12-23T07:03:53.649Z,99.90
2018-12-23T07:06:21.168Z,99.90
2018-12-23T07:08:48.675Z,99.90
2018-12-23T07:11:16.155Z,99.90
2018-12-23T07:13:43.690Z,99.90
2018-12-23T07:16:11.161Z,99.90
2018-12-23T07:18:38.712Z,99.90
2018-12-23T07:21:06.248Z,99.90
2018-12-23T07:23:33.724Z,99.90
2018-12-23T07:26:01.222Z,99.90
2018-12-23T07:28:28.711Z,99.90
2018-12-23T07:30:56.255Z,99.90
2018-12-23T07:33:23.781Z,99.90
2018-12-23T07:35:51.291Z,99.90
2018-12-23T07:38:18.812Z,99.90
2018-12-23T07:40:46.353Z,99.90
2018-12-23T07:43:13.887Z,99.90
2018-12-23T07:45:41.403Z,99.90
2018-12-23T07:48:08.952Z,99.90
2018-12-23T07:50:36.440Z,99.90
2018-12-23T07:53:03.983Z,99.90
2018-12-23T07:55:31.548Z,99.90
2018-12-23T07:57:59.071Z,99.90
2018-12-23T08:00:26.579Z,99.90
2018-12-23T08:02:54.058Z,99.90
2018-12-23T08:05:21.606Z,99.90
2018-12-23T08:07:49.131Z,99.90
2018-12-23T08:10:16.632Z,99.90
2018-12-23T08:12:44.160Z,99.90
2018-12-23T08:15:11.630Z,99.90
2018-12-23T08:17:39.173Z,99.90
2018-12-23T08:20:06.803Z,99.90
2018-12-23T08:22:34.366Z,99.90
2018-12-23T08:25:01.993Z,99.90
2018-12-23T08:30:52.630Z,99.70
2018-12-23T08:33:33.565Z,99.60
2018-12-23T08:36:14.770Z,99.60
2018-12-23T08:38:56.041Z,99.50
2018-12-23T08:41:24.713Z,99.40
2018-12-23T08:44:12.666Z,99.40
2018-12-23T08:47:00.625Z,99.50
2018-12-23T08:49:48.617Z,99.40
2018-12-23T08:52:36.617Z,99.30
2018-12-23T08:55:24.579Z,99.20
2018-12-23T08:58:12.492Z,99.30
2018-12-23T09:01:00.449Z,98.90
2018-12-23T09:03:48.369Z,98.90
2018-12-23T09:06:36.425Z,99.00
2018-12-23T09:09:24.381Z,98.80
2018-12-23T09:12:12.487Z,98.70
2018-12-23T09:15:00.528Z,98.80
2018-12-23T09:17:29.257Z,98.60
2018-12-23T09:20:10.496Z,98.50
2018-12-23T09:22:51.138Z,98.50
2018-12-23T09:25:32.253Z,98.50
2018-12-23T09:28:13.524Z,98.30
2018-12-23T09:30:54.573Z,98.30
2018-12-23T09:33:35.994Z,98.30
2018-12-23T09:36:17.296Z,98.30
2018-12-23T09:38:57.626Z,98.10
2018-12-23T09:41:38.098Z,98.10
2018-12-23T09:44:19.119Z,98.10
2018-12-23T09:47:00.185Z,98.10
2018-12-23T09:49:40.632Z,98.30
2018-12-23T09:52:21.940Z,98.10
2018-12-23T09:55:03.250Z,98.00
2018-12-23T09:57:31.872Z,97.80
2018-12-23T10:00:19.837Z,97.10
2018-12-23T10:06:01.587Z,96.90
2018-12-23T10:08:49.727Z,97.00
2018-12-23T10:11:37.750Z,97.10
2018-12-23T10:14:25.725Z,97.00
2018-12-23T10:17:13.804Z,97.20
2018-12-23T10:20:01.739Z,96.90
2018-12-23T10:22:49.645Z,97.10
2018-12-23T10:25:37.599Z,96.80
2018-12-23T10:28:25.677Z,96.80
2018-12-23T10:31:13.714Z,96.70
2018-12-23T10:34:01.685Z,96.70
2018-12-23T10:36:49.697Z,96.50
2018-12-23T10:39:37.595Z,96.40
2018-12-23T10:42:25.585Z,96.50
2018-12-23T10:45:13.533Z,96.40
2018-12-23T10:48:01.539Z,96.10
2018-12-23T10:50:49.570Z,96.10
2018-12-23T10:53:37.658Z,96.10
2018-12-23T10:56:25.606Z,96.10
2018-12-23T10:59:13.576Z,96.10
2018-12-23T11:02:01.542Z,96.30
2018-12-23T11:04:49.524Z,96.10
2018-12-23T11:07:37.587Z,96.20
2018-12-23T11:10:25.808Z,96.20
2018-12-23T11:13:13.736Z,95.90
2018-12-23T11:16:02.301Z,95.70
2018-12-23T11:18:50.452Z,95.50
2018-12-23T11:21:38.499Z,95.20
2018-12-23T11:24:26.469Z,95.20
2018-12-23T11:27:14.403Z,95.30
2018-12-23T11:29:54.942Z,95.30
2018-12-23T11:32:36.366Z,95.30
2018-12-23T11:35:16.843Z,95.30
2018-12-23T11:37:57.932Z,95.40
2018-12-23T11:40:38.388Z,95.40
2018-12-23T11:43:19.606Z,95.50
2018-12-23T11:46:00.847Z,95.70
2018-12-23T11:48:42.102Z,95.80
2018-12-23T11:51:23.535Z,96.10
2018-12-23T11:54:04.966Z,96.30
2018-12-23T11:56:45.831Z,96.30
2018-12-23T11:59:27.170Z,96.80
2018-12-23T12:02:15.101Z,97.00
2018-12-23T12:04:50.476Z,97.50
2018-12-23T12:07:31.420Z,97.80
2018-12-23T12:10:12.432Z,98.40
2018-12-23T12:12:53.812Z,98.90
2018-12-23T12:15:34.753Z,99.60
2018-12-23T12:18:15.553Z,99.90
2018-12-23T12:20:56.501Z,99.90
2018-12-23T12:23:37.862Z,99.90
2018-12-23T12:26:18.796Z,99.90
2018-12-23T12:29:00.089Z,99.90
2018-12-23T12:31:40.760Z,99.90
2018-12-23T12:34:21.944Z,99.90
2018-12-23T12:37:02.370Z,99.90
2018-12-23T12:39:43.270Z,99.90
2018-12-23T12:42:24.546Z,99.90
2018-12-23T12:45:05.064Z,99.90
2018-12-23T12:47:33.654Z,99.90
2018-12-23T12:50:21.732Z,99.90
2018-12-23T12:53:09.631Z,99.90
2018-12-23T12:55:57.699Z,99.90
2018-12-23T12:58:45.685Z,99.90
2018-12-23T13:01:33.719Z,99.90
2018-12-23T13:04:21.606Z,99.90
2018-12-23T13:07:09.662Z,99.90
2018-12-23T13:09:57.657Z,99.90
2018-12-23T13:12:45.700Z,99.90
2018-12-23T13:15:26.427Z,99.90
2018-12-23T13:18:07.457Z,99.90
2018-12-23T13:20:48.733Z,99.90
2018-12-23T13:23:29.435Z,99.90
2018-12-23T13:26:10.889Z,99.90
2018-12-23T13:28:52.101Z,99.90
2018-12-23T13:31:32.658Z,99.90
2018-12-23T13:34:13.721Z,99.90
2018-12-23T13:39:37.334Z,99.90
2018-12-23T13:42:18.265Z,99.90
2018-12-23T13:44:58.835Z,99.90
2018-12-23T13:47:39.406Z,99.90
2018-12-23T13:50:20.409Z,99.90
2018-12-23T13:53:01.093Z,99.90
2018-12-23T13:55:42.421Z,99.90
2018-12-23T13:58:23.678Z,99.90
2018-12-23T14:01:04.705Z,99.90
2018-12-23T14:03:46.005Z,99.90
2018-12-23T14:06:26.438Z,99.90
2018-12-23T14:09:07.351Z,99.90
2018-12-23T14:11:48.545Z,99.90
2018-12-23T14:14:29.705Z,99.90
2018-12-23T14:17:10.641Z,99.90
2018-12-23T14:19:51.714Z,99.90
2018-12-23T14:22:32.194Z,99.90
2018-12-23T14:25:13.396Z,99.90
2018-12-23T14:27:54.451Z,99.90
2018-12-23T14:30:35.647Z,99.90
2018-12-23T14:33:04.200Z,99.90
2018-12-23T14:35:52.223Z,99.90
2018-12-23T14:38:40.116Z,99.90
2018-12-23T14:41:28.168Z,99.90
2018-12-23T14:44:17.848Z,99.90
2018-12-23T14:47:06.083Z,99.90
2018-12-23T14:50:13.602Z,99.90
2018-12-23T14:53:22.586Z,99.90
2018-12-23T14:56:05.891Z,99.90
2018-12-23T14:58:47.535Z,99.90
2018-12-23T15:01:29.940Z,99.90
2018-12-23T15:04:10.321Z,99.90
2018-12-23T15:06:51.770Z,99.90
2018-12-23T15:09:34.708Z,99.90
2018-12-23T15:12:15.685Z,99.90
2018-12-23T15:14:56.702Z,99.90
2018-12-23T15:17:37.441Z,99.90
2018-12-23T15:20:18.636Z,99.90
2018-12-23T15:23:00.407Z,99.90
2018-12-23T15:25:41.152Z,99.90
2018-12-23T15:28:25.453Z,99.90
2018-12-23T15:33:52.401Z,99.90
2018-12-23T15:36:33.341Z,99.90
2018-12-23T15:39:42.563Z,99.90
2018-12-23T15:42:08.382Z,99.90
2018-12-23T15:44:36.930Z,99.90
2018-12-23T15:47:24.902Z,99.90
2018-12-23T15:50:12.858Z,99.90
2018-12-23T15:53:01.056Z,99.90
2018-12-23T15:55:48.956Z,99.90
2018-12-23T15:58:37.304Z,99.90
2018-12-23T16:01:05.987Z,99.90
2018-12-23T16:03:54.294Z,99.90
2018-12-23T16:06:42.534Z,99.90
2018-12-23T16:09:30.554Z,99.90
2018-12-23T16:12:18.518Z,99.90
2018-12-23T16:15:06.477Z,99.90
2018-12-23T16:17:54.360Z,99.90
2018-12-23T16:20:42.310Z,99.90
2018-12-23T16:23:10.917Z,99.90
2018-12-23T16:25:58.884Z,99.90
2018-12-23T16:28:46.897Z,99.90
2018-12-23T16:31:34.781Z,99.90
2018-12-23T16:34:23.053Z,99.90
2018-12-23T16:37:10.957Z,99.90
2018-12-23T16:39:59.691Z,99.90
2018-12-23T16:42:48.689Z,99.90
2018-12-23T16:45:36.757Z,99.90
2018-12-23T16:48:24.754Z,99.90
2018-12-23T16:51:12.680Z,99.90
2018-12-23T16:54:00.657Z,99.90
2018-12-23T16:56:48.620Z,99.90
2018-12-23T16:59:30.224Z,99.90
2018-12-23T17:02:10.769Z,99.90
2018-12-23T17:04:54.198Z,99.90
2018-12-23T17:07:35.246Z,99.90
2018-12-23T17:10:16.363Z,99.90
2018-12-23T17:12:57.542Z,99.90
2018-12-23T17:15:38.524Z,99.90
2018-12-23T17:21:01.499Z,99.90
2018-12-23T17:23:42.386Z,99.90
2018-12-23T17:26:23.157Z,99.90
2018-12-23T17:29:04.393Z,99.90
2018-12-23T17:31:45.129Z,99.90
2018-12-23T17:34:25.739Z,99.90
2018-12-23T17:37:06.818Z,99.90
2018-12-23T17:39:47.311Z,99.90
2018-12-23T17:42:28.336Z,99.90
2018-12-23T17:45:09.301Z,99.90
2018-12-23T17:47:50.303Z,99.90
2018-12-23T17:50:30.852Z,99.90
2018-12-23T17:53:11.514Z,99.90
2018-12-23T17:55:52.330Z,99.90
2018-12-23T17:58:32.848Z,99.90
2018-12-23T18:01:13.695Z,99.90
2018-12-23T18:04:02.224Z,99.90
2018-12-23T18:06:37.500Z,99.90
2018-12-23T18:09:18.440Z,99.90
2018-12-23T18:11:59.871Z,99.90
2018-12-23T18:14:41.297Z,99.90
2018-12-23T18:17:22.551Z,99.90
2018-12-23T18:20:03.590Z,99.90
2018-12-23T18:22:44.681Z,99.90
2018-12-23T18:25:25.667Z,99.90
2018-12-23T18:28:06.108Z,99.90
2018-12-23T18:30:47.627Z,99.90
2018-12-23T18:33:16.513Z,99.90
2018-12-23T18:36:04.558Z,99.90
2018-12-23T18:38:52.601Z,99.90
2018-12-23T18:41:40.498Z,99.90
2018-12-23T18:44:28.461Z,99.90
2018-12-23T18:47:16.971Z,99.90
2018-12-23T18:50:06.059Z,99.90
2018-12-23T18:52:54.049Z,99.90
2018-12-23T18:55:35.118Z,99.90
2018-12-23T18:58:15.564Z,99.90
2018-12-23T19:00:56.148Z,99.90
2018-12-23T19:03:36.933Z,99.90
2018-12-23T19:06:18.010Z,99.90
2018-12-23T19:08:59.661Z,99.90
2018-12-23T19:11:40.702Z,99.90
2018-12-23T19:14:22.081Z,99.90
2018-12-23T19:17:02.577Z,99.90
2018-12-23T19:19:43.930Z,99.90
2018-12-23T19:22:25.214Z,99.90
2018-12-23T19:25:06.857Z,99.90
2018-12-23T19:27:47.574Z,99.90
2018-12-23T19:30:28.567Z,99.90
2018-12-23T19:33:09.811Z,99.90
2018-12-23T19:35:50.779Z,99.90
2018-12-23T19:38:31.867Z,99.90
2018-12-23T19:41:12.990Z,99.90
2018-12-23T19:43:53.991Z,99.90
2018-12-23T19:46:34.965Z,99.90
2018-12-23T19:49:16.095Z,99.90
2018-12-23T19:51:56.661Z,99.90
2018-12-23T19:54:37.853Z,99.90
2018-12-23T19:57:18.414Z,99.90
2018-12-23T19:59:59.127Z,99.90
2018-12-23T20:02:40.534Z,99.90
2018-12-23T20:05:20.949Z,99.90
2018-12-23T20:08:02.294Z,99.90
2018-12-23T20:10:44.226Z,99.90
2018-12-23T20:13:24.743Z,99.90
2018-12-23T20:16:05.706Z,99.90
2018-12-23T20:18:46.882Z,99.90
2018-12-23T20:24:10.805Z,99.90
2018-12-23T20:26:51.278Z,99.90
2018-12-23T20:29:32.031Z,99.90
2018-12-23T20:32:13.349Z,99.90
2018-12-23T20:35:21.930Z,99.90
2018-12-23T20:38:30.541Z,99.90
2018-12-23T20:41:37.969Z,99.90
2018-12-23T20:44:45.332Z,99.90
2018-12-23T20:47:52.723Z,99.90
2018-12-23T20:50:59.952Z,99.90
2018-12-23T20:54:07.288Z,99.90
2018-12-23T20:57:15.938Z,99.90
2018-12-23T21:00:23.233Z,99.90
2018-12-23T21:03:30.617Z,99.90
2018-12-23T21:06:37.868Z,99.90
2018-12-23T21:09:45.241Z,99.90
2018-12-23T21:12:54.104Z,99.90
2018-12-23T21:16:01.446Z,99.90
2018-12-23T21:18:42.720Z,99.90
2018-12-23T21:21:23.578Z,99.90
2018-12-23T21:24:04.645Z,99.90
2018-12-23T21:26:45.561Z,99.90
2018-12-23T21:29:26.074Z,99.90
2018-12-23T21:32:06.467Z,99.90
2018-12-23T21:34:46.972Z,99.90
2018-12-23T21:37:28.330Z,99.90
2018-12-23T21:40:11.193Z,99.90
2018-12-23T21:42:52.302Z,99.90
2018-12-23T21:45:59.979Z,99.90
2018-12-23T21:49:07.465Z,99.90
2018-12-23T21:52:14.820Z,99.90
2018-12-23T21:55:22.280Z,99.90
2018-12-23T21:58:29.650Z,99.90
2018-12-23T22:01:37.007Z,99.90
2018-12-23T22:04:45.841Z,99.90
2018-12-23T22:07:53.054Z,99.90
2018-12-23T22:11:00.481Z,99.90
2018-12-23T22:13:48.456Z,99.90
2018-12-23T22:16:36.425Z,99.90
2018-12-23T22:19:17.168Z,99.90
2018-12-23T22:21:58.533Z,99.90
2018-12-23T22:24:39.682Z,99.90
2018-12-23T22:27:20.930Z,99.90
2018-12-23T22:30:01.630Z,99.90
2018-12-23T22:32:42.165Z,99.90
2018-12-23T22:35:23.268Z,99.90
2018-12-23T22:38:04.406Z,99.90
2018-12-23T22:40:45.701Z,99.90
2018-12-23T22:43:26.582Z,99.90
2018-12-23T22:46:07.704Z,99.90
2018-12-23T22:48:48.250Z,99.90
2018-12-23T22:51:29.445Z,99.90
2018-12-23T22:54:10.743Z,99.90
2018-12-23T22:56:52.224Z,99.90
2018-12-23T22:59:32.895Z,99.90
2018-12-23T23:02:13.457Z,99.90
2018-12-23T23:04:54.559Z,99.90
2018-12-23T23:07:35.184Z,99.90
2018-12-23T23:10:16.341Z,99.90
2018-12-23T23:12:57.839Z,99.90
2018-12-23T23:15:39.307Z,99.90
2018-12-23T23:18:19.832Z,99.90
2018-12-23T23:21:01.474Z,99.90
2018-12-23T23:23:42.004Z,99.90
2018-12-23T23:26:23.299Z,99.90
2018-12-23T23:29:04.346Z,99.90
2018-12-23T23:31:45.530Z,99.90
2018-12-23T23:34:26.964Z,99.90
2018-12-23T23:37:08.415Z,99.90
2018-12-23T23:39:49.312Z,99.90
2018-12-23T23:42:30.130Z,99.90
2018-12-23T23:45:11.128Z,99.90
2018-12-23T23:47:52.480Z,99.90
2018-12-23T23:50:33.449Z,99.90
2018-12-23T23:53:14.804Z,99.90
2018-12-23T23:55:55.832Z,99.90
2018-12-23T23:58:36.405Z,99.90
